createdAt,value
2017-10-13T00:00:48.229Z,94.07
2017-10-13T00:01:48.662Z,93.98
2017-10-13T00:02:49.090Z,94.27
2017-10-13T00:03:49.515Z,94.36
2017-10-13T00:04:49.946Z,93.98
2017-10-13T00:05:50.374Z,94.07
2017-10-13T00:06:50.802Z,94.07
2017-10-13T00:07:51.237Z,94.17
2017-10-13T00:08:51.660Z,94.17
2017-10-13T00:09:52.086Z,93.88
2017-10-13T00:10:52.517Z,94.27
2017-10-13T00:11:52.945Z,93.88
2017-10-13T00:12:53.374Z,93.84
2017-10-13T00:13:53.799Z,94.17
2017-10-13T00:14:54.229Z,94.17
2017-10-13T00:15:54.658Z,93.88
2017-10-13T00:16:55.089Z,94.27
2017-10-13T00:17:55.517Z,94.27
2017-10-13T00:18:55.945Z,94.07
2017-10-13T00:19:56.373Z,94.27
2017-10-13T00:20:56.801Z,94.17
2017-10-13T00:21:57.229Z,93.98
2017-10-13T00:22:57.664Z,94.84
2017-10-13T00:23:58.087Z,93.88
2017-10-13T00:24:58.515Z,94.56
2017-10-13T00:25:58.946Z,94.27
2017-10-13T00:26:59.374Z,94.07
2017-10-13T00:27:59.803Z,93.98
2017-10-13T00:29:00.230Z,94.27
2017-10-13T00:30:00.659Z,94.27
2017-10-13T00:31:01.092Z,94.07
2017-10-13T00:32:01.519Z,94.07
2017-10-13T00:33:01.945Z,93.79
2017-10-13T00:34:02.379Z,93.79
2017-10-13T00:35:02.805Z,94.17
2017-10-13T00:36:03.232Z,93.88
2017-10-13T00:37:03.660Z,93.88
2017-10-13T00:38:04.089Z,93.98
2017-10-13T00:39:04.517Z,94.27
2017-10-13T00:40:04.945Z,93.98
2017-10-13T00:41:05.375Z,94.07
2017-10-13T00:42:05.807Z,94.07
2017-10-13T00:43:06.240Z,93.98
2017-10-13T00:44:06.660Z,94.07
2017-10-13T00:45:07.091Z,94.46
2017-10-13T00:46:07.518Z,94.36
2017-10-13T00:47:07.946Z,94.27
2017-10-13T00:48:08.375Z,93.98
2017-10-13T00:49:08.803Z,94.36
2017-10-13T00:50:09.233Z,93.79
2017-10-13T00:51:09.663Z,94.27
2017-10-13T00:52:10.088Z,94.07
2017-10-13T00:53:10.523Z,94.46
2017-10-13T00:54:10.950Z,94.27
2017-10-13T00:55:11.382Z,94.27
2017-10-13T00:56:11.804Z,94.17
2017-10-13T00:57:12.234Z,93.51
2017-10-13T00:58:12.661Z,94.07
2017-10-13T00:59:13.091Z,94.27
2017-10-13T01:00:13.521Z,93.88
2017-10-13T01:01:13.949Z,94.07
2017-10-13T01:02:14.386Z,94.27
2017-10-13T01:03:14.810Z,94.27
2017-10-13T01:04:15.243Z,93.98
2017-10-13T01:05:15.679Z,94.17
2017-10-13T01:06:16.092Z,94.36
2017-10-13T01:07:16.524Z,94.74
2017-10-13T01:08:16.950Z,94.17
2017-10-13T01:09:17.379Z,94.17
2017-10-13T01:10:17.808Z,93.79
2017-10-13T01:11:18.235Z,94.27
2017-10-13T01:12:18.662Z,94.56
2017-10-13T01:13:19.094Z,94.56
2017-10-13T01:14:19.521Z,94.36
2017-10-13T01:15:19.951Z,93.88
2017-10-13T01:16:20.378Z,93.98
2017-10-13T01:17:20.807Z,94.07
2017-10-13T01:18:21.237Z,94.27
2017-10-13T01:19:21.665Z,94.27
2017-10-13T01:20:22.092Z,93.98
2017-10-13T01:21:22.523Z,94.36
2017-10-13T01:22:22.949Z,94.56
2017-10-13T01:23:23.377Z,94.17
2017-10-13T01:24:23.808Z,94.07
2017-10-13T01:25:24.235Z,94.36
2017-10-13T01:26:24.668Z,94.17
2017-10-13T01:27:25.093Z,94.27
2017-10-13T01:28:25.521Z,93.98
2017-10-13T01:29:25.951Z,94.17
2017-10-13T01:30:26.380Z,94.56
2017-10-13T01:31:26.808Z,94.56
2017-10-13T01:32:27.238Z,94.46
2017-10-13T01:33:27.665Z,94.46
2017-10-13T01:34:28.104Z,94.65
2017-10-13T01:35:28.524Z,94.74
2017-10-13T01:36:28.953Z,94.74
2017-10-13T01:37:29.386Z,94.36
2017-10-13T01:38:29.808Z,94.27
2017-10-13T01:39:30.238Z,94.84
2017-10-13T01:40:30.669Z,94.27
2017-10-13T01:41:31.096Z,94.36
2017-10-13T01:42:31.524Z,94.84
2017-10-13T01:43:31.957Z,93.88
2017-10-13T01:44:32.383Z,94.27
2017-10-13T01:45:32.817Z,94.65
2017-10-13T01:46:33.241Z,94.46
2017-10-13T01:47:33.673Z,94.36
2017-10-13T01:48:34.100Z,94.27
2017-10-13T01:49:34.528Z,94.65
2017-10-13T01:50:34.958Z,94.46
2017-10-13T01:51:35.385Z,94.65
2017-10-13T01:52:35.818Z,94.65
2017-10-13T01:53:36.246Z,94.56
2017-10-13T01:54:36.674Z,94.65
2017-10-13T01:55:37.101Z,94.65
2017-10-13T01:56:37.529Z,94.74
2017-10-13T01:57:37.956Z,94.56
2017-10-13T01:58:38.386Z,94.65
2017-10-13T01:59:38.815Z,94.84
2017-10-13T02:00:39.245Z,94.36
2017-10-13T02:01:39.676Z,94.84
2017-10-13T02:02:40.102Z,94.84
2017-10-13T02:03:40.530Z,94.65
2017-10-13T02:04:40.967Z,94.65
2017-10-13T02:05:41.390Z,94.56
2017-10-13T02:06:41.825Z,94.84
2017-10-13T02:07:42.249Z,94.84
2017-10-13T02:08:42.675Z,94.84
2017-10-13T02:09:43.110Z,94.65
2017-10-13T02:10:43.535Z,94.93
2017-10-13T02:11:43.962Z,94.74
2017-10-13T02:12:44.388Z,94.65
2017-10-13T02:13:44.849Z,95.03
2017-10-13T02:14:45.247Z,95.03
2017-10-13T02:15:45.677Z,95.22
2017-10-13T02:16:46.104Z,95.41
2017-10-13T02:17:46.537Z,95.12
2017-10-13T02:18:46.964Z,95.41
2017-10-13T02:19:47.393Z,94.93
2017-10-13T02:20:47.823Z,94.74
2017-10-13T02:21:48.249Z,94.84
2017-10-13T02:22:48.677Z,95.32
2017-10-13T02:23:49.108Z,95.03
2017-10-13T02:24:49.533Z,94.65
2017-10-13T02:25:49.963Z,94.56
2017-10-13T02:26:50.394Z,95.12
2017-10-13T02:27:50.823Z,95.41
2017-10-13T02:28:51.250Z,94.46
2017-10-13T02:29:51.680Z,94.46
2017-10-13T02:30:52.111Z,94.65
2017-10-13T02:31:52.535Z,94.27
2017-10-13T02:32:52.963Z,95.03
2017-10-13T02:33:53.395Z,95.22
2017-10-13T02:34:53.826Z,94.93
2017-10-13T02:35:54.252Z,94.84
2017-10-13T02:36:54.679Z,95.12
2017-10-13T02:37:55.110Z,95.03
2017-10-13T02:38:55.540Z,95.79
2017-10-13T02:39:55.967Z,95.70
2017-10-13T02:40:56.395Z,95.03
2017-10-13T02:41:56.825Z,95.70
2017-10-13T02:42:57.255Z,95.51
2017-10-13T02:43:57.689Z,95.51
2017-10-13T02:44:58.107Z,95.79
2017-10-13T02:45:58.537Z,95.03
2017-10-13T02:47:01.791Z,95.22
2017-10-13T02:47:59.400Z,95.22
2017-10-13T02:48:59.830Z,95.22
2017-10-13T02:50:00.252Z,94.93
2017-10-13T02:51:00.680Z,95.03
2017-10-13T02:52:01.108Z,95.41
2017-10-13T02:53:01.537Z,95.51
2017-10-13T02:54:01.966Z,94.93
2017-10-13T02:55:02.398Z,95.32
2017-10-13T02:56:02.839Z,95.12
2017-10-13T02:57:03.253Z,95.22
2017-10-13T02:58:03.681Z,95.32
2017-10-13T02:59:04.116Z,94.74
2017-10-13T03:00:04.544Z,95.12
2017-10-13T03:01:04.968Z,95.61
2017-10-13T03:02:05.396Z,95.61
2017-10-13T03:03:05.828Z,95.70
2017-10-13T03:04:06.257Z,95.61
2017-10-13T03:05:06.685Z,94.84
2017-10-13T03:06:07.114Z,95.51
2017-10-13T03:07:07.542Z,95.32
2017-10-13T03:08:07.973Z,95.61
2017-10-13T03:09:08.399Z,95.32
2017-10-13T03:10:08.830Z,95.79
2017-10-13T03:11:09.260Z,95.61
2017-10-13T03:12:09.687Z,95.22
2017-10-13T03:13:10.122Z,94.93
2017-10-13T03:14:10.546Z,95.79
2017-10-13T03:15:10.977Z,95.79
2017-10-13T03:16:11.403Z,95.61
2017-10-13T03:17:11.838Z,95.51
2017-10-13T03:18:12.264Z,95.32
2017-10-13T03:19:12.694Z,95.61
2017-10-13T03:20:13.119Z,95.70
2017-10-13T03:21:13.548Z,95.51
2017-10-13T03:22:13.976Z,95.51
2017-10-13T03:23:14.408Z,95.70
2017-10-13T03:24:14.836Z,95.61
2017-10-13T03:25:15.264Z,95.37
2017-10-13T03:26:15.692Z,95.22
2017-10-13T03:27:16.122Z,95.22
2017-10-13T03:28:16.551Z,95.51
2017-10-13T03:29:16.982Z,95.70
2017-10-13T03:30:17.412Z,95.46
2017-10-13T03:31:17.839Z,95.61
2017-10-13T03:32:18.270Z,95.79
2017-10-13T03:33:18.693Z,95.46
2017-10-13T03:34:19.128Z,95.27
2017-10-13T03:35:19.552Z,95.65
2017-10-13T03:36:19.982Z,95.46
2017-10-13T03:37:20.413Z,95.65
2017-10-13T03:38:20.839Z,95.37
2017-10-13T03:39:21.270Z,95.65
2017-10-13T03:40:21.696Z,95.46
2017-10-13T03:41:22.126Z,95.75
2017-10-13T03:42:22.554Z,95.56
2017-10-13T03:43:22.983Z,95.94
2017-10-13T03:44:23.410Z,95.46
2017-10-13T03:45:23.839Z,95.84
2017-10-13T03:46:24.270Z,95.56
2017-10-13T03:47:24.717Z,95.94
2017-10-13T03:48:25.140Z,95.84
2017-10-13T03:49:25.555Z,95.75
2017-10-13T03:50:25.981Z,95.84
2017-10-13T03:51:26.414Z,95.56
2017-10-13T03:52:26.838Z,96.32
2017-10-13T03:53:27.266Z,96.22
2017-10-13T03:54:27.702Z,96.41
2017-10-13T03:55:28.124Z,96.41
2017-10-13T03:56:28.566Z,95.17
2017-10-13T03:57:28.985Z,96.13
2017-10-13T03:58:29.411Z,96.41
2017-10-13T03:59:29.841Z,96.22
2017-10-13T04:00:30.268Z,96.41
2017-10-13T04:01:30.696Z,96.32
2017-10-13T04:02:31.127Z,96.13
2017-10-13T04:03:31.555Z,96.32
2017-10-13T04:04:31.982Z,96.41
2017-10-13T04:05:32.428Z,96.22
2017-10-13T04:06:32.841Z,96.13
2017-10-13T04:07:33.267Z,95.94
2017-10-13T04:08:33.696Z,96.22
2017-10-13T04:09:34.125Z,96.03
2017-10-13T04:10:34.558Z,95.75
2017-10-13T04:11:34.982Z,96.22
2017-10-13T04:12:35.430Z,96.13
2017-10-13T04:13:35.842Z,96.22
2017-10-13T04:14:36.268Z,96.03
2017-10-13T04:15:36.699Z,96.32
2017-10-13T04:16:37.134Z,96.03
2017-10-13T04:17:37.554Z,96.03
2017-10-13T04:18:37.982Z,96.03
2017-10-13T04:19:38.411Z,96.13
2017-10-13T04:20:38.841Z,96.13
2017-10-13T04:21:39.284Z,96.03
2017-10-13T04:22:39.696Z,95.94
2017-10-13T04:23:40.138Z,95.94
2017-10-13T04:24:40.554Z,96.03
2017-10-13T04:25:40.982Z,96.13
2017-10-13T04:26:41.417Z,96.03
2017-10-13T04:27:41.852Z,96.03
2017-10-13T04:28:42.269Z,95.84
2017-10-13T04:29:42.694Z,96.13
2017-10-13T04:30:43.124Z,96.22
2017-10-13T04:31:43.553Z,96.03
2017-10-13T04:32:43.983Z,96.13
2017-10-13T04:33:44.411Z,96.03
2017-10-13T04:34:44.840Z,95.84
2017-10-13T04:35:45.274Z,96.32
2017-10-13T04:36:45.696Z,96.13
2017-10-13T04:37:46.123Z,96.03
2017-10-13T04:38:46.553Z,95.84
2017-10-13T04:39:46.982Z,95.94
2017-10-13T04:40:47.410Z,96.03
2017-10-13T04:41:47.849Z,95.75
2017-10-13T04:42:48.268Z,95.75
2017-10-13T04:43:48.696Z,95.94
2017-10-13T04:44:49.125Z,95.84
2017-10-13T04:45:49.560Z,95.84
2017-10-13T04:46:49.983Z,95.84
2017-10-13T04:47:50.412Z,96.22
2017-10-13T04:48:50.837Z,95.75
2017-10-13T04:49:51.266Z,95.84
2017-10-13T04:50:51.695Z,95.84
2017-10-13T04:51:52.127Z,95.84
2017-10-13T04:52:52.552Z,96.03
2017-10-13T04:53:52.979Z,95.84
2017-10-13T04:54:53.408Z,95.84
2017-10-13T04:55:53.841Z,95.94
2017-10-13T04:56:56.828Z,96.13
2017-10-13T04:57:54.692Z,95.84
2017-10-13T04:58:55.121Z,95.94
2017-10-13T04:59:55.548Z,96.22
2017-10-13T05:00:55.976Z,95.94
2017-10-13T05:01:56.406Z,95.94
2017-10-13T05:02:56.835Z,96.03
2017-10-13T05:03:57.260Z,96.03
2017-10-13T05:04:57.691Z,95.94
2017-10-13T05:05:58.119Z,96.13
2017-10-13T05:06:58.540Z,96.13
2017-10-13T05:07:58.967Z,95.17
2017-10-13T05:08:59.403Z,96.03
2017-10-13T05:09:59.832Z,96.03
2017-10-13T05:11:00.254Z,95.37
2017-10-13T05:12:00.679Z,95.94
2017-10-13T05:13:01.111Z,95.94
2017-10-13T05:14:01.538Z,95.65
2017-10-13T05:15:01.963Z,95.84
2017-10-13T05:16:02.390Z,96.03
2017-10-13T05:17:02.826Z,95.84
2017-10-13T05:18:03.246Z,95.84
2017-10-13T05:19:03.675Z,95.84
2017-10-13T05:20:04.102Z,95.56
2017-10-13T05:21:04.531Z,96.03
2017-10-13T05:22:04.960Z,95.51
2017-10-13T05:23:05.389Z,95.17
2017-10-13T05:24:05.816Z,95.75
2017-10-13T05:25:06.248Z,96.03
2017-10-13T05:26:06.674Z,95.65
2017-10-13T05:27:07.106Z,95.08
2017-10-13T05:28:07.528Z,96.03
2017-10-13T05:29:07.959Z,95.84
2017-10-13T05:30:08.396Z,95.65
2017-10-13T05:31:08.823Z,95.84
2017-10-13T05:32:09.244Z,95.27
2017-10-13T05:33:09.669Z,95.75
2017-10-13T05:34:10.102Z,96.22
2017-10-13T05:35:10.525Z,95.84
2017-10-13T05:36:10.954Z,95.84
2017-10-13T05:37:11.384Z,95.17
2017-10-13T05:38:11.809Z,95.27
2017-10-13T05:39:12.240Z,95.27
2017-10-13T05:40:12.670Z,95.46
2017-10-13T05:41:13.094Z,95.65
2017-10-13T05:42:13.523Z,95.27
2017-10-13T05:43:13.950Z,95.75
2017-10-13T05:44:14.387Z,95.84
2017-10-13T05:45:14.808Z,95.27
2017-10-13T05:46:15.234Z,95.37
2017-10-13T05:47:15.665Z,95.94
2017-10-13T05:48:16.098Z,95.65
2017-10-13T05:49:16.521Z,95.94
2017-10-13T05:50:16.946Z,96.22
2017-10-13T05:51:17.378Z,95.65
2017-10-13T05:52:17.806Z,96.03
2017-10-13T05:53:18.233Z,95.84
2017-10-13T05:54:18.663Z,95.75
2017-10-13T05:55:19.089Z,95.84
2017-10-13T05:56:19.524Z,95.56
2017-10-13T05:57:19.948Z,95.84
2017-10-13T05:58:20.373Z,96.13
2017-10-13T05:59:20.806Z,95.75
2017-10-13T06:00:21.235Z,95.65
2017-10-13T06:01:21.662Z,95.37
2017-10-13T06:02:22.087Z,96.13
2017-10-13T06:03:22.517Z,95.65
2017-10-13T06:04:22.950Z,95.84
2017-10-13T06:05:23.374Z,96.13
2017-10-13T06:06:23.806Z,95.94
2017-10-13T06:07:24.232Z,96.03
2017-10-13T06:08:24.664Z,95.84
2017-10-13T06:09:25.104Z,95.37
2017-10-13T06:10:25.521Z,95.75
2017-10-13T06:11:25.968Z,96.13
2017-10-13T06:12:26.374Z,95.94
2017-10-13T06:13:26.801Z,96.41
2017-10-13T06:14:27.233Z,96.03
2017-10-13T06:15:27.659Z,96.22
2017-10-13T06:16:28.090Z,95.75
2017-10-13T06:17:28.517Z,95.94
2017-10-13T06:18:28.947Z,96.13
2017-10-13T06:19:29.375Z,96.03
2017-10-13T06:20:29.803Z,96.41
2017-10-13T06:21:30.232Z,96.41
2017-10-13T06:22:30.736Z,96.70
2017-10-13T06:23:31.092Z,96.75
2017-10-13T06:24:31.520Z,96.46
2017-10-13T06:25:31.948Z,96.46
2017-10-13T06:26:32.378Z,96.46
2017-10-13T06:27:32.807Z,96.22
2017-10-13T06:28:33.238Z,95.75
2017-10-13T06:29:33.664Z,95.84
2017-10-13T06:30:34.094Z,96.51
2017-10-13T06:31:34.520Z,96.22
2017-10-13T06:32:34.952Z,96.56
2017-10-13T06:33:35.379Z,96.08
2017-10-13T06:34:35.811Z,96.66
2017-10-13T06:35:36.237Z,96.94
2017-10-13T06:36:36.689Z,96.94
2017-10-13T06:37:37.100Z,96.46
2017-10-13T06:38:37.531Z,96.46
2017-10-13T06:39:37.956Z,96.27
2017-10-13T06:40:38.386Z,96.66
2017-10-13T06:41:38.813Z,96.94
2017-10-13T06:42:39.250Z,96.75
2017-10-13T06:43:39.670Z,96.56
2017-10-13T06:44:40.101Z,97.03
2017-10-13T06:45:40.536Z,96.70
2017-10-13T06:46:40.960Z,96.56
2017-10-13T06:47:41.388Z,96.46
2017-10-13T06:48:41.820Z,96.46
2017-10-13T06:49:42.250Z,96.70
2017-10-13T06:50:42.674Z,96.80
2017-10-13T06:51:43.107Z,96.42
2017-10-13T06:52:43.535Z,96.89
2017-10-13T06:53:43.964Z,96.89
2017-10-13T06:54:44.394Z,96.70
2017-10-13T06:55:44.823Z,96.42
2017-10-13T06:56:45.261Z,96.61
2017-10-13T06:57:45.682Z,96.70
2017-10-13T06:58:46.111Z,96.70
2017-10-13T06:59:46.539Z,96.42
2017-10-13T07:00:46.969Z,97.18
2017-10-13T07:01:47.400Z,96.51
2017-10-13T07:02:47.840Z,96.98
2017-10-13T07:03:48.256Z,96.98
2017-10-13T07:04:48.689Z,96.89
2017-10-13T07:05:49.118Z,96.80
2017-10-13T07:06:49.568Z,96.22
2017-10-13T07:07:49.976Z,96.98
2017-10-13T07:08:50.408Z,96.22
2017-10-13T07:09:50.835Z,96.70
2017-10-13T07:10:51.263Z,96.89
2017-10-13T07:11:51.695Z,96.32
2017-10-13T07:12:52.136Z,96.51
2017-10-13T07:13:52.553Z,96.61
2017-10-13T07:14:52.985Z,96.51
2017-10-13T07:15:53.414Z,96.70
2017-10-13T07:16:53.845Z,96.70
2017-10-13T07:17:54.275Z,96.32
2017-10-13T07:18:54.710Z,96.89
2017-10-13T07:19:55.129Z,96.51
2017-10-13T07:20:55.570Z,96.89
2017-10-13T07:21:55.993Z,96.70
2017-10-13T07:22:56.425Z,96.42
2017-10-13T07:23:56.851Z,97.08
2017-10-13T07:24:57.287Z,96.61
2017-10-13T07:25:57.713Z,96.32
2017-10-13T07:26:58.159Z,96.32
2017-10-13T07:27:58.576Z,96.61
2017-10-13T07:28:59.004Z,96.61
2017-10-13T07:29:59.432Z,96.80
2017-10-13T07:30:59.866Z,96.51
2017-10-13T07:32:00.294Z,96.42
2017-10-13T07:33:00.729Z,96.32
2017-10-13T07:34:01.155Z,96.51
2017-10-13T07:35:01.592Z,96.61
2017-10-13T07:36:02.022Z,97.08
2017-10-13T07:37:02.452Z,96.61
2017-10-13T07:38:02.883Z,96.70
2017-10-13T07:39:03.305Z,96.37
2017-10-13T07:40:03.740Z,96.17
2017-10-13T07:41:04.168Z,96.27
2017-10-13T07:42:04.622Z,95.79
2017-10-13T07:43:05.028Z,95.94
2017-10-13T07:44:05.462Z,95.89
2017-10-13T07:45:05.892Z,95.89
2017-10-13T07:46:06.327Z,95.79
2017-10-13T07:47:06.761Z,95.75
2017-10-13T07:48:07.186Z,95.41
2017-10-13T07:49:07.619Z,95.32
2017-10-13T07:50:08.051Z,95.61
2017-10-13T07:51:08.478Z,95.61
2017-10-13T07:52:08.921Z,95.98
2017-10-13T07:53:09.351Z,95.79
2017-10-13T07:54:09.779Z,95.84
2017-10-13T07:55:10.211Z,95.51
2017-10-13T07:56:10.649Z,95.98
2017-10-13T07:57:11.076Z,96.13
2017-10-13T07:58:11.503Z,95.94
2017-10-13T07:59:13.883Z,95.27
2017-10-13T08:00:12.374Z,95.46
2017-10-13T08:01:12.810Z,95.56
2017-10-13T08:02:16.886Z,95.65
2017-10-13T08:03:13.675Z,95.84
2017-10-13T08:04:14.100Z,95.61
2017-10-13T08:05:14.537Z,95.03
2017-10-13T08:06:14.967Z,95.03
2017-10-13T08:07:15.398Z,94.65
2017-10-13T08:08:15.835Z,94.93
2017-10-13T08:09:16.268Z,94.74
2017-10-13T08:10:16.700Z,94.12
2017-10-13T08:11:17.136Z,94.21
2017-10-13T08:12:17.567Z,94.21
2017-10-13T08:13:18.004Z,93.55
2017-10-13T08:14:18.436Z,92.88
2017-10-13T08:15:18.875Z,94.02
2017-10-13T08:16:19.305Z,93.79
2017-10-13T08:17:19.740Z,95.32
2017-10-13T08:18:20.175Z,95.36
2017-10-13T08:19:20.611Z,94.74
2017-10-13T08:20:21.049Z,94.31
2017-10-13T08:21:21.481Z,94.46
2017-10-13T08:22:21.922Z,94.46
2017-10-13T08:23:22.353Z,95.27
2017-10-13T08:24:22.784Z,94.02
2017-10-13T08:25:23.216Z,94.60
2017-10-13T08:26:23.654Z,94.26
2017-10-13T08:27:24.088Z,92.92
2017-10-13T08:28:24.526Z,92.30
2017-10-13T08:29:24.960Z,93.21
2017-10-13T08:30:25.400Z,92.87
2017-10-13T08:31:25.832Z,91.96
2017-10-13T08:32:26.269Z,91.00
2017-10-13T08:33:26.707Z,91.53
2017-10-13T08:34:27.142Z,92.21
2017-10-13T08:35:27.585Z,91.67
2017-10-13T08:36:28.017Z,90.58
2017-10-13T08:37:28.453Z,92.54
2017-10-13T08:38:28.892Z,93.12
2017-10-13T08:39:29.328Z,92.49
2017-10-13T08:40:29.779Z,92.35
2017-10-13T08:41:30.206Z,93.12
2017-10-13T08:42:30.645Z,92.78
2017-10-13T08:43:31.082Z,92.06
2017-10-13T08:44:31.523Z,92.68
2017-10-13T08:45:31.963Z,91.63
2017-10-13T08:46:32.403Z,91.86
2017-10-13T08:47:32.837Z,90.53
2017-10-13T08:48:33.278Z,90.91
2017-10-13T08:49:33.717Z,91.44
2017-10-13T08:50:34.157Z,91.82
2017-10-13T08:51:34.591Z,91.05
2017-10-13T08:52:35.037Z,91.25
2017-10-13T08:53:35.474Z,91.25
2017-10-13T08:54:35.917Z,91.53
2017-10-13T08:55:36.357Z,90.91
2017-10-13T08:56:36.800Z,91.00
2017-10-13T08:57:37.236Z,91.58
2017-10-13T08:58:37.678Z,92.06
2017-10-13T08:59:38.117Z,90.86
2017-10-13T09:00:38.561Z,91.00
2017-10-13T09:01:39.002Z,90.53
2017-10-13T09:02:39.444Z,90.47
2017-10-13T09:03:39.886Z,88.31
2017-10-13T09:04:40.334Z,86.58
2017-10-13T09:05:40.768Z,85.95
2017-10-13T09:06:41.229Z,86.11
2017-10-13T09:07:41.657Z,89.66
2017-10-13T09:08:42.097Z,90.09
2017-10-13T09:09:42.551Z,90.09
2017-10-13T09:10:42.984Z,88.51
2017-10-13T09:11:43.426Z,89.86
2017-10-13T09:12:43.868Z,90.47
2017-10-13T09:13:44.311Z,89.23
2017-10-13T09:14:44.761Z,89.51
2017-10-13T09:15:45.200Z,88.65
2017-10-13T09:16:45.643Z,87.35
2017-10-13T09:17:46.086Z,87.11
2017-10-13T09:18:46.524Z,89.28
2017-10-13T09:19:46.964Z,92.25
2017-10-13T09:20:47.409Z,92.21
2017-10-13T09:21:47.850Z,92.40
2017-10-13T09:22:48.294Z,92.40
2017-10-13T09:23:48.749Z,92.25
2017-10-13T09:24:49.171Z,90.86
2017-10-13T09:25:49.613Z,90.43
2017-10-13T09:26:50.055Z,90.09
2017-10-13T09:27:50.505Z,89.75
2017-10-13T09:28:50.934Z,89.03
2017-10-13T09:29:51.374Z,87.92
2017-10-13T09:30:51.821Z,86.87
2017-10-13T09:31:52.249Z,86.05
2017-10-13T09:32:52.695Z,84.80
2017-10-13T09:33:53.140Z,83.70
2017-10-13T09:34:53.581Z,85.95
2017-10-13T09:35:54.054Z,83.74
2017-10-13T09:36:54.462Z,83.78
2017-10-13T09:37:54.912Z,80.71
2017-10-13T09:38:55.353Z,83.36
2017-10-13T09:39:55.797Z,85.85
2017-10-13T09:40:56.243Z,84.69
2017-10-13T09:41:56.687Z,81.02
2017-10-13T09:42:57.136Z,76.78
2017-10-13T09:43:57.577Z,80.30
2017-10-13T09:44:58.024Z,78.58
2017-10-13T09:45:58.468Z,81.82
2017-10-13T09:46:58.918Z,86.30
2017-10-13T09:47:59.360Z,88.51
2017-10-13T09:48:59.817Z,87.93
2017-10-13T09:50:00.254Z,87.21
2017-10-13T09:51:00.701Z,88.41
2017-10-13T09:52:01.143Z,88.45
2017-10-13T09:53:01.587Z,86.96
2017-10-13T09:54:02.040Z,85.62
2017-10-13T09:55:02.482Z,85.24
2017-10-13T09:56:02.927Z,85.47
2017-10-13T09:57:03.378Z,84.95
2017-10-13T09:58:03.810Z,86.68
2017-10-13T09:59:04.253Z,85.99
2017-10-13T10:00:04.695Z,82.43
2017-10-13T10:01:05.141Z,81.61
2017-10-13T10:02:05.587Z,81.52
2017-10-13T10:03:06.028Z,80.94
2017-10-13T10:04:06.469Z,81.86
2017-10-13T10:05:06.916Z,82.24
2017-10-13T10:06:07.355Z,83.74
2017-10-13T10:07:07.799Z,83.87
2017-10-13T10:08:08.248Z,81.37
2017-10-13T10:09:08.686Z,78.81
2017-10-13T10:10:09.136Z,76.92
2017-10-13T10:11:09.580Z,76.34
2017-10-13T10:12:10.021Z,74.55
2017-10-13T10:13:10.467Z,74.93
2017-10-13T10:14:10.910Z,73.57
2017-10-13T10:15:11.356Z,71.44
2017-10-13T10:16:11.802Z,73.22
2017-10-13T10:17:12.250Z,81.05
2017-10-13T10:18:12.702Z,82.53
2017-10-13T10:19:13.140Z,81.92
2017-10-13T10:20:13.586Z,84.56
2017-10-13T10:21:14.038Z,86.34
2017-10-13T10:22:14.477Z,86.82
2017-10-13T10:23:14.941Z,86.77
2017-10-13T10:24:15.372Z,86.92
2017-10-13T10:25:15.818Z,88.12
2017-10-13T10:26:16.259Z,88.35
2017-10-13T10:27:16.709Z,87.30
2017-10-13T10:28:17.151Z,88.02
2017-10-13T10:29:17.598Z,89.18
2017-10-13T10:30:18.045Z,89.51
2017-10-13T10:31:18.491Z,88.31
2017-10-13T10:32:18.930Z,87.93
2017-10-13T10:33:19.377Z,89.08
2017-10-13T10:34:19.821Z,89.51
2017-10-13T10:35:20.267Z,90.62
2017-10-13T10:36:20.702Z,90.72
2017-10-13T10:37:21.150Z,90.62
2017-10-13T10:38:21.602Z,91.19
2017-10-13T10:39:22.031Z,92.15
2017-10-13T10:40:22.476Z,91.49
2017-10-13T10:41:22.915Z,92.21
2017-10-13T10:42:23.357Z,92.30
2017-10-13T10:43:23.795Z,91.96
2017-10-13T10:44:24.238Z,91.96
2017-10-13T10:45:24.672Z,91.29
2017-10-13T10:46:25.111Z,91.39
2017-10-13T10:47:25.551Z,92.15
2017-10-13T10:48:25.995Z,91.96
2017-10-13T10:49:26.430Z,92.21
2017-10-13T10:50:26.874Z,92.11
2017-10-13T10:51:27.325Z,92.30
2017-10-13T10:52:27.780Z,92.40
2017-10-13T10:53:28.231Z,92.15
2017-10-13T10:54:28.626Z,91.77
2017-10-13T10:55:29.061Z,91.67
2017-10-13T10:56:29.500Z,91.49
2017-10-13T10:57:29.943Z,91.49
2017-10-13T10:58:30.378Z,90.86
2017-10-13T10:59:30.813Z,90.00
2017-10-13T11:00:31.252Z,90.28
2017-10-13T11:01:32.739Z,90.62
2017-10-13T11:02:32.121Z,91.00
2017-10-13T11:03:32.569Z,90.33
2017-10-13T11:04:33.004Z,91.34
2017-10-13T11:05:33.443Z,91.00
2017-10-13T11:06:33.883Z,90.57
2017-10-13T11:07:34.342Z,89.80
2017-10-13T11:08:34.795Z,89.47
2017-10-13T11:09:35.209Z,87.98
2017-10-13T11:10:35.637Z,87.74
2017-10-13T11:11:36.074Z,88.26
2017-10-13T11:12:36.511Z,88.31
2017-10-13T11:13:36.953Z,88.37
2017-10-13T11:14:37.403Z,88.22
2017-10-13T11:15:37.827Z,88.79
2017-10-13T11:16:38.277Z,89.61
2017-10-13T11:17:38.762Z,89.51
2017-10-13T11:18:39.143Z,89.61
2017-10-13T11:19:39.579Z,89.08
2017-10-13T11:20:40.020Z,88.02
2017-10-13T11:21:40.460Z,87.98
2017-10-13T11:22:40.898Z,88.41
2017-10-13T11:23:41.337Z,87.98
2017-10-13T11:24:41.777Z,87.07
2017-10-13T11:25:42.219Z,86.34
2017-10-13T11:26:42.658Z,85.19
2017-10-13T11:27:43.092Z,85.52
2017-10-13T11:28:43.531Z,83.80
2017-10-13T11:29:43.975Z,83.36
2017-10-13T11:30:44.413Z,83.80
2017-10-13T11:31:44.856Z,84.18
2017-10-13T11:32:45.293Z,84.42
2017-10-13T11:33:45.738Z,85.72
2017-10-13T11:34:46.180Z,85.15
2017-10-13T11:35:46.614Z,84.42
2017-10-13T11:36:47.068Z,83.47
2017-10-13T11:37:47.497Z,83.85
2017-10-13T11:38:47.936Z,83.61
2017-10-13T11:39:48.379Z,84.48
2017-10-13T11:40:48.813Z,85.15
2017-10-13T11:41:49.248Z,83.85
2017-10-13T11:42:49.694Z,84.86
2017-10-13T11:43:50.137Z,85.53
2017-10-13T11:44:50.572Z,84.61
2017-10-13T11:45:51.004Z,83.18
2017-10-13T11:46:51.447Z,83.08
2017-10-13T11:47:51.887Z,83.56
2017-10-13T11:48:52.325Z,83.08
2017-10-13T11:49:52.763Z,81.10
2017-10-13T11:50:53.201Z,79.96
2017-10-13T11:51:53.644Z,78.90
2017-10-13T11:52:54.079Z,78.23
2017-10-13T11:53:54.522Z,78.80
2017-10-13T11:54:54.958Z,77.46
2017-10-13T11:55:55.399Z,78.23
2017-10-13T11:56:55.840Z,78.42
2017-10-13T11:57:56.280Z,77.59
2017-10-13T11:58:56.711Z,75.29
2017-10-13T11:59:57.155Z,75.10
2017-10-13T12:00:57.591Z,76.50
2017-10-13T12:01:58.036Z,76.21
2017-10-13T12:02:58.469Z,77.23
2017-10-13T12:03:58.908Z,78.44
2017-10-13T12:04:59.346Z,79.21
2017-10-13T12:05:59.784Z,78.67
2017-10-13T12:07:00.228Z,77.80
2017-10-13T12:08:00.662Z,77.26
2017-10-13T12:09:01.098Z,77.08
2017-10-13T12:10:01.547Z,78.03
2017-10-13T12:11:01.978Z,76.92
2017-10-13T12:12:02.416Z,76.25
2017-10-13T12:13:02.855Z,76.25
2017-10-13T12:14:03.292Z,75.15
2017-10-13T12:15:03.730Z,75.92
2017-10-13T12:16:04.171Z,77.51
2017-10-13T12:17:04.608Z,75.92
2017-10-13T12:18:05.049Z,76.12
2017-10-13T12:19:05.483Z,75.82
2017-10-13T12:20:05.924Z,75.54
2017-10-13T12:21:06.367Z,75.31
2017-10-13T12:22:06.802Z,76.84
2017-10-13T12:23:07.241Z,76.65
2017-10-13T12:24:07.675Z,77.04
2017-10-13T12:25:08.115Z,76.12
2017-10-13T12:26:08.553Z,75.73
2017-10-13T12:27:08.991Z,75.73
2017-10-13T12:28:09.431Z,75.38
2017-10-13T12:29:09.870Z,74.90
2017-10-13T12:30:10.325Z,75.29
2017-10-13T12:31:10.747Z,74.27
2017-10-13T12:32:11.196Z,73.79
2017-10-13T12:33:11.624Z,73.69
2017-10-13T12:34:12.062Z,73.66
2017-10-13T12:35:12.497Z,74.81
2017-10-13T12:36:12.940Z,75.29
2017-10-13T12:37:13.375Z,74.71
2017-10-13T12:38:13.814Z,75.29
2017-10-13T12:39:14.255Z,75.29
2017-10-13T12:40:14.691Z,75.29
2017-10-13T12:41:15.128Z,77.08
2017-10-13T12:42:15.569Z,78.38
2017-10-13T12:43:16.008Z,79.34
2017-10-13T12:44:16.448Z,79.05
2017-10-13T12:45:16.883Z,79.14
2017-10-13T12:46:17.319Z,79.34
2017-10-13T12:47:17.758Z,79.72
2017-10-13T12:48:18.206Z,79.63
2017-10-13T12:49:18.634Z,79.44
2017-10-13T12:50:19.072Z,79.63
2017-10-13T12:51:19.512Z,79.82
2017-10-13T12:52:19.950Z,79.05
2017-10-13T12:53:20.386Z,79.34
2017-10-13T12:54:20.824Z,79.88
2017-10-13T12:55:21.261Z,80.07
2017-10-13T12:56:21.702Z,81.22
2017-10-13T12:57:22.139Z,81.27
2017-10-13T12:58:22.575Z,81.85